KPZQ METAR Reports


Rogers City, Presque Isle County Airport, MI, United States (KPZQ) 45-24-25N 083-48-46W
Apr 03, 2020 - 03:56 PM EDT / 2020.04.03 1956 UTC
Wind: from the NE (040 degrees) at 6 MPH (5 KT):0
Visibility: 10 mile(s):0
Sky conditions: clear
Temperature: 42.6 F (5.9 C)
Dew Point: 26.6 F (-3.0 C)
Relative Humidity: 52%
Pressure (altimeter): 30.11 in. Hg (1019 hPa)
ob: KPZQ 031956Z AUTO 04005KT 10SM CLR 06/M03 A3011 RMK AO2 T00591030
cycle: 20

 

Rogers City METAR Meteogram

Weather Chart

Nearby METAR Reports

KPZQ - Rogers City, Michigan, USA
Distance from station: SSW 1mi, 2km
Updated: Fri, 03-Apr-2020 3:35pm EDT
Clear
Clear
 Wind from NE
Wind: NE 7 mph , 11 km/h
Temperature: 43°F , 6°C
Wind Chill: 39°F , 4°C
Dew Point: 27°F , -3°C
Humidity: 53%
Barometer: 30.11 inHg , 1019.6 hPa
Clouds: Clear
Visibility: 10 miles , 16 km
2020/04/03 19:35 KPZQ 031935Z AUTO 05006KT 10SM CLR 06/M03 A3011 RMK AO2 T00551032
KAPN - Alpena, Michigan, USA
Distance from station: SSE 27mi, 43km
Updated: Fri, 03-Apr-2020 3:54pm EDT
Clear
Clear
 Wind from ESE
Wind: ESE 8 mph , 13 km/h
Temperature: 54°F , 12°C
Dew Point: 30°F , -1°C
Humidity: 41%
Barometer: 30.08 inHg , 1018.6 hPa
Clouds: Clear
Visibility: 10 miles , 16 km
2020/04/03 19:54 KAPN 031954Z AUTO 11007KT 10SM CLR 12/M01 A3008 RMK AO2 SLP192 T01171006
 
KSLH - Cheboygan, Michigan, USA
Distance from station: WNW 38mi, 61km
Updated: Fri, 03-Apr-2020 3:55pm EDT
Clear
Clear
 Wind from ENE
Wind: ENE 10 mph , 17 km/h
Temperature: 48°F , 9°C
Wind Chill: 44°F , 7°C
Dew Point: 30°F , -1°C
Humidity: 50%
Barometer: 30.08 inHg , 1018.6 hPa
Clouds: Clear
Visibility: 10 miles , 16 km
2020/04/03 19:55 KSLH 031955Z AUTO 06009KT 10SM CLR 09/M01 A3008 RMK AO2 T00881013
KDRM - Drummond Is, Michigan, USA
Distance from station: N 40mi, 65km
Updated: Fri, 03-Apr-2020 3:56pm EDT
Clear
Clear
 Wind from SSE
Wind: SSE 3 mph , 6 km/h
Temperature: 48°F , 9°C
Dew Point: 28°F , -2°C
Humidity: 46%
Barometer: 30.08 inHg , 1018.6 hPa
Clouds: Clear
Visibility: 10 miles , 16 km
2020/04/03 19:56 KDRM 031956Z AUTO 15003KT 10SM CLR 09/M02 A3008 RMK AO2 T00911020
 
KPLN - Pellston, Michigan, USA
Distance from station: WNW 49mi, 79km
Updated: Fri, 03-Apr-2020 3:54pm EDT
Clear
Clear
 Wind from varies
Wind: varies 7 mph , 11 km/h
Temperature: 57°F , 14°C
Dew Point: 27°F , -3°C
Humidity: 31%
Barometer: 30.07 inHg , 1018.3 hPa
Clouds: Clear
Visibility: 10 miles , 16 km
2020/04/03 19:54 KPLN 031954Z AUTO VRB06KT 10SM CLR 14/M03 A3007 RMK AO2 SLP188 T01391028
KMCD - Mackinac Island, Michigan, USA
Distance from station: NW 50mi, 80km
Updated: Fri, 03-Apr-2020 3:55pm EDT
Clear
Clear
 Wind from E
Wind: E 7 mph , 11 km/h
Temperature: 46°F , 8°C
Wind Chill: 42°F , 6°C
Dew Point: 28°F , -2°C
Humidity: 50%
Barometer: 30.08 inHg , 1018.6 hPa
Clouds: Clear
Visibility: 10 miles , 16 km
2020/04/03 19:55 KMCD 031955Z AUTO 08006KT 10SM CLR 08/M02 A3008 RMK AO2 T00821017